Accueil
METAR-TAF:

METAR-TAF

Aéroports :

Aéroport de Gênes-Christophe Colomb

Gênes, Italie

latitude: 44-25N, longitude: 008-51E, altitude: 2 m

Observation

Le bulletin a été fait il y a 38 minutes, à 03:20 UTC
Vent 3 kt de est/nord-est, variant entre nord/nord-est et est
Température 24°C
Humidité 69%
Pression 1014 hPa
Visibilité 10 km ou plus

METAR: LIMJ 060320Z AUTO 06003KT 030V090 9999 NCD 24/18 Q1014

Heure: 05:58 (03:58 UTC)

Prévision

Le bulletin a été fait il y a 4 heures et 58 minutes, à 23:00 UTC
Prévision valable du 06 à 00 UTC au 06 à 24 UTC
Vent 8 kt de nord/nord-est
Visibilité 10 km ou plus
pas de nuages en-dessous de 1500 mètres et pas de cumulonimbus.

TAF: LIMJ 052300Z 0600/0624 02008KT CAVOK

Observations et prévisions météorologiques de plus de 4000 aéroports (messages METAR et TAF).

Les stations disponibles sont représentées par des disques jaunes et rouges sur la carte.

Passer la souris dessus pour voir le nom de la station.

Cliquer dessus pour voir les observations et prévisions météorologiques.

Pour changer de carte: cliquez sur les boutons verts avec une croix noire pour zoomer, sur le bouton vert avec un tiret pour effectuer un zoom arrière, ou sur les flèches vertes pour les cartes adjacentes.


METAR-TAF: